Time;durP1;ratioP1;P1;durP2;ratioP2;P2;SDS_P1;SDS_P2;PMS_P1;PMS_P2;Temp;Humidity;BMP_temperature;BMP_pressure;BME280_temperature;BME280_humidity;BME280_pressure;Samples;Min_cycle;Max_cycle;Signal;HPM_P1;HPM_P2
2022/03/06 00:01:17;;;;;;;10.35;4.68;;;;;;;;;;5076878;28;20089;-67
2022/03/06 00:03:44;;;;;;;10.85;4.40;;;;;;;;;;5077424;28;20024;-66
2022/03/06 00:06:10;;;;;;;6.80;4.15;;;;;;;;;;5095172;28;20432;-67
2022/03/06 00:08:36;;;;;;;9.57;4.28;;;;;;;;;;5094877;28;20054;-67
2022/03/06 00:11:02;;;;;;;6.45;4.65;;;;;;;;;;5075945;28;20028;-67
2022/03/06 00:13:28;;;;;;;4.72;4.07;;;;;;;;;;5111803;28;20055;-67
2022/03/06 00:15:54;;;;;;;6.30;4.03;;;;;;;;;;5115459;28;20024;-67
2022/03/06 00:18:20;;;;;;;6.45;4.18;;;;;;;;;;5115417;28;20020;-66
2022/03/06 00:20:46;;;;;;;6.80;4.40;;;;;;;;;;5115186;28;20110;-66
2022/03/06 00:23:12;;;;;;;9.32;4.28;;;;;;;;;;5115543;28;20028;-67
2022/03/06 00:25:38;;;;;;;5.82;4.50;;;;;;;;;;5115183;28;20027;-67
2022/03/06 00:28:05;;;;;;;5.63;4.22;;;;;;;;;;5109523;28;20031;-66
2022/03/06 00:30:31;;;;;;;6.28;3.97;;;;;;;;;;5103144;28;20024;-67
2022/03/06 00:32:57;;;;;;;5.88;4.30;;;;;;;;;;5094761;28;20021;-67
2022/03/06 00:35:24;;;;;;;6.75;4.35;;;;;;;;;;5094985;28;20133;-66
2022/03/06 00:37:50;;;;;;;5.72;4.25;;;;;;;;;;5094735;28;20114;-66
2022/03/06 00:40:16;;;;;;;5.65;4.00;;;;;;;;;;5094687;28;20392;-67
2022/03/06 00:42:42;;;;;;;5.22;3.72;;;;;;;;;;5094332;28;20456;-67
2022/03/06 00:45:08;;;;;;;6.47;3.70;;;;;;;;;;5075755;28;20036;-66
2022/03/06 00:47:34;;;;;;;4.85;4.03;;;;;;;;;;5102390;28;20085;-67
2022/03/06 00:50:02;;;;;;;5.28;3.88;;;;;;;;;;5094368;28;20424;-67
2022/03/06 00:52:28;;;;;;;5.40;4.13;;;;;;;;;;5094136;28;20024;-67
2022/03/06 00:54:54;;;;;;;5.90;4.07;;;;;;;;;;5076176;28;20036;-66
2022/03/06 00:57:20;;;;;;;4.47;3.70;;;;;;;;;;5094198;28;20027;-66
2022/03/06 00:59:46;;;;;;;3.90;3.60;;;;;;;;;;5094230;28;20028;-66
2022/03/06 01:02:12;;;;;;;4.78;3.67;;;;;;;;;;5093144;28;20032;-67
2022/03/06 01:04:39;;;;;;;7.57;3.90;;;;;;;;;;5102281;28;20088;-67
2022/03/06 01:07:05;;;;;;;6.57;3.92;;;;;;;;;;5076070;28;20707;-66
2022/03/06 01:09:31;;;;;;;6.22;3.90;;;;;;;;;;5093724;28;20039;-66
2022/03/06 01:11:58;;;;;;;7.15;4.00;;;;;;;;;;5075465;28;20028;-66
2022/03/06 01:14:24;;;;;;;7.40;3.95;;;;;;;;;;5093796;28;20479;-67
2022/03/06 01:16:50;;;;;;;6.40;3.38;;;;;;;;;;5075429;28;20024;-67
2022/03/06 01:19:16;;;;;;;6.47;3.55;;;;;;;;;;5093301;28;20055;-67
2022/03/06 01:21:42;;;;;;;7.63;3.58;;;;;;;;;;5101354;28;20083;-67
2022/03/06 01:24:08;;;;;;;8.55;3.70;;;;;;;;;;5093855;28;20467;-68
2022/03/06 01:26:35;;;;;;;5.85;3.70;;;;;;;;;;5093166;28;20019;-67
2022/03/06 01:29:01;;;;;;;5.30;3.88;;;;;;;;;;5093973;28;20032;-67
2022/03/06 01:31:27;;;;;;;7.15;3.90;;;;;;;;;;5093521;28;20024;-67
2022/03/06 01:33:53;;;;;;;5.53;3.83;;;;;;;;;;5093473;28;20505;-67
2022/03/06 01:36:19;;;;;;;4.82;3.72;;;;;;;;;;5093518;28;20024;-67
2022/03/06 01:38:45;;;;;;;8.75;3.88;;;;;;;;;;5075238;28;20055;-67
2022/03/06 01:41:11;;;;;;;5.13;3.80;;;;;;;;;;5075269;28;20020;-67
2022/03/06 01:43:37;;;;;;;11.43;3.80;;;;;;;;;;5093326;28;20031;-66
2022/03/06 01:46:03;;;;;;;4.53;3.75;;;;;;;;;;5093248;28;20437;-66
2022/03/06 01:48:29;;;;;;;4.55;3.45;;;;;;;;;;5092570;28;20023;-65
2022/03/06 01:50:55;;;;;;;5.85;3.35;;;;;;;;;;5085348;28;20020;-66
2022/03/06 01:53:21;;;;;;;12.80;3.63;;;;;;;;;;5075121;28;20353;-66
2022/03/06 01:55:47;;;;;;;3.80;3.38;;;;;;;;;;5093479;28;20024;-65
2022/03/06 01:58:14;;;;;;;7.20;3.70;;;;;;;;;;5093171;28;20027;-65
2022/03/06 02:00:41;;;;;;;8.05;4.45;;;;;;;;;;5075153;28;20027;-66
2022/03/06 02:03:07;;;;;;;3.90;3.50;;;;;;;;;;5092844;28;20028;-66
2022/03/06 02:05:34;;;;;;;6.40;3.60;;;;;;;;;;5074976;28;20024;-66
2022/03/06 02:08:00;;;;;;;4.32;3.75;;;;;;;;;;5092934;28;20035;-66
2022/03/06 02:10:26;;;;;;;4.25;3.70;;;;;;;;;;5092532;28;20099;-67
2022/03/06 02:12:52;;;;;;;4.55;3.65;;;;;;;;;;5092715;28;20024;-66
2022/03/06 02:15:18;;;;;;;7.32;3.85;;;;;;;;;;5092770;28;20466;-65
2022/03/06 02:17:45;;;;;;;4.00;3.63;;;;;;;;;;5092544;28;20058;-65
2022/03/06 02:20:16;;;;;;;5.82;3.40;;;;;;;;;;5092309;28;20039;-66
2022/03/06 02:22:43;;;;;;;4.28;3.60;;;;;;;;;;5092515;28;20044;-67
2022/03/06 02:25:10;;;;;;;7.50;6.45;;;;;;;;;;5092655;28;20024;-76
2022/03/06 02:27:36;;;;;;;5.78;5.18;;;;;;;;;;5094100;28;20296;-64
2022/03/06 02:30:09;;;;;;;17.25;4.55;;;;;;;;;;5092409;28;20020;-67
2022/03/06 02:32:36;;;;;;;11.68;4.32;;;;;;;;;;5092152;28;20032;-67
2022/03/06 02:35:02;;;;;;;16.35;4.93;;;;;;;;;;5088916;28;20043;-66
2022/03/06 02:37:28;;;;;;;7.18;4.63;;;;;;;;;;5069698;28;20035;-66
2022/03/06 02:39:54;;;;;;;8.40;4.13;;;;;;;;;;5084184;28;20028;-67
2022/03/06 02:42:39;;;;;;;5.72;4.25;;;;;;;;;;5092517;28;20730;-66
2022/03/06 02:45:08;;;;;;;7.97;4.40;;;;;;;;;;5092410;28;20487;-66
2022/03/06 02:47:34;;;;;;;6.60;4.32;;;;;;;;;;5092379;28;20578;-67
2022/03/06 02:50:02;;;;;;;8.40;4.35;;;;;;;;;;5092576;28;20028;-66
2022/03/06 02:52:28;;;;;;;15.88;4.35;;;;;;;;;;5092156;28;20012;-66
2022/03/06 02:54:54;;;;;;;7.72;4.60;;;;;;;;;;5084206;28;20383;-66
2022/03/06 02:57:20;;;;;;;9.15;3.78;;;;;;;;;;5083835;28;20020;-66
2022/03/06 02:59:46;;;;;;;4.72;4.13;;;;;;;;;;5092153;28;20165;-66
2022/03/06 03:02:12;;;;;;;4.78;3.88;;;;;;;;;;5080440;28;20039;-66
2022/03/06 03:04:39;;;;;;;5.22;3.85;;;;;;;;;;5070823;28;20037;-66
2022/03/06 03:07:06;;;;;;;5.53;4.00;;;;;;;;;;5072084;28;20016;-66
2022/03/06 03:09:33;;;;;;;6.28;3.95;;;;;;;;;;5071568;28;20359;-66
2022/03/06 03:11:59;;;;;;;6.07;4.03;;;;;;;;;;5075782;28;20020;-66
2022/03/06 03:14:25;;;;;;;8.68;3.90;;;;;;;;;;5083622;28;20062;-66
2022/03/06 03:16:52;;;;;;;11.85;3.60;;;;;;;;;;5092082;28;20032;-66
2022/03/06 03:19:18;;;;;;;5.82;4.03;;;;;;;;;;5091858;28;20543;-67
2022/03/06 03:21:44;;;;;;;4.20;3.45;;;;;;;;;;5091905;28;20127;-66
2022/03/06 03:24:11;;;;;;;4.90;3.92;;;;;;;;;;5091994;28;20024;-67
2022/03/06 03:26:37;;;;;;;4.45;3.75;;;;;;;;;;5092119;28;20032;-66
2022/03/06 03:29:03;;;;;;;5.07;4.30;;;;;;;;;;5087340;28;20025;-66
2022/03/06 03:31:29;;;;;;;4.38;3.45;;;;;;;;;;5080038;28;20039;-67
2022/03/06 03:33:55;;;;;;;4.78;3.50;;;;;;;;;;5091833;28;20111;-68
2022/03/06 03:36:21;;;;;;;4.32;3.40;;;;;;;;;;5077190;28;20100;-66
2022/03/06 03:38:47;;;;;;;5.60;3.70;;;;;;;;;;5071669;28;20035;-66
2022/03/06 03:41:13;;;;;;;9.48;3.95;;;;;;;;;;5071512;28;20036;-66
2022/03/06 03:43:39;;;;;;;5.50;3.58;;;;;;;;;;5070374;28;20028;-66
2022/03/06 03:46:07;;;;;;;5.18;3.60;;;;;;;;;;5075756;28;20054;-66
2022/03/06 03:48:33;;;;;;;6.10;4.00;;;;;;;;;;5083436;28;20072;-64
2022/03/06 03:50:59;;;;;;;4.18;3.15;;;;;;;;;;5095482;28;20027;-65
2022/03/06 03:53:25;;;;;;;6.03;3.78;;;;;;;;;;5094092;28;20069;-65
2022/03/06 03:55:52;;;;;;;5.85;3.95;;;;;;;;;;5095468;28;20479;-65
2022/03/06 03:58:18;;;;;;;4.72;3.67;;;;;;;;;;5095521;28;20028;-65
2022/03/06 04:00:45;;;;;;;6.07;3.85;;;;;;;;;;5095186;28;20051;-65
2022/03/06 04:03:13;;;;;;;4.70;3.72;;;;;;;;;;5071358;28;20060;-66
2022/03/06 04:05:39;;;;;;;7.60;3.63;;;;;;;;;;5073732;28;20075;-66
2022/03/06 04:08:05;;;;;;;5.35;3.40;;;;;;;;;;5073644;28;20028;-65
2022/03/06 04:10:31;;;;;;;3.78;3.33;;;;;;;;;;5074516;28;20094;-65
2022/03/06 04:12:57;;;;;;;3.78;3.38;;;;;;;;;;5074718;28;20127;-65
2022/03/06 04:15:23;;;;;;;4.03;3.40;;;;;;;;;;5074834;28;20141;-65
2022/03/06 04:17:49;;;;;;;4.82;3.20;;;;;;;;;;5074650;28;20341;-65
2022/03/06 04:20:15;;;;;;;4.32;3.25;;;;;;;;;;5074894;28;20021;-65
2022/03/06 04:22:41;;;;;;;4.63;3.45;;;;;;;;;;5094573;28;20040;-65
2022/03/06 04:25:07;;;;;;;4.00;3.30;;;;;;;;;;5097281;28;20379;-65
2022/03/06 04:27:33;;;;;;;3.70;3.40;;;;;;;;;;5115340;28;20023;-66
2022/03/06 04:29:59;;;;;;;3.97;3.58;;;;;;;;;;5097011;28;20036;-64
2022/03/06 04:32:25;;;;;;;5.35;3.78;;;;;;;;;;5096921;28;20035;-66
2022/03/06 04:34:51;;;;;;;6.20;3.70;;;;;;;;;;5105047;28;20481;-66
2022/03/06 04:37:17;;;;;;;4.00;3.60;;;;;;;;;;5110297;28;20024;-66
2022/03/06 04:39:43;;;;;;;3.67;3.17;;;;;;;;;;5114894;28;20032;-65
2022/03/06 04:42:09;;;;;;;3.92;3.53;;;;;;;;;;5096640;28;20027;-65
2022/03/06 04:44:35;;;;;;;5.10;3.45;;;;;;;;;;5115053;28;20038;-66
2022/03/06 04:47:01;;;;;;;3.75;3.30;;;;;;;;;;5114811;28;20019;-65
2022/03/06 04:49:27;;;;;;;4.57;3.47;;;;;;;;;;5115046;28;20110;-65
2022/03/06 04:51:53;;;;;;;9.50;3.88;;;;;;;;;;5108913;28;20145;-66
2022/03/06 04:54:20;;;;;;;5.38;3.60;;;;;;;;;;5101433;28;20367;-65
2022/03/06 04:56:46;;;;;;;5.57;3.47;;;;;;;;;;5114776;28;20024;-66
2022/03/06 04:59:12;;;;;;;6.30;3.83;;;;;;;;;;5114861;28;20023;-65
2022/03/06 05:01:38;;;;;;;6.10;3.38;;;;;;;;;;5106027;28;20095;-66
2022/03/06 05:04:04;;;;;;;4.25;3.58;;;;;;;;;;5076114;28;20031;-65
2022/03/06 05:06:30;;;;;;;4.28;3.40;;;;;;;;;;5094145;28;20078;-64
2022/03/06 05:08:56;;;;;;;5.80;3.20;;;;;;;;;;5093297;28;20028;-64
2022/03/06 05:11:23;;;;;;;3.75;3.38;;;;;;;;;;5083390;28;20440;-64
2022/03/06 05:13:49;;;;;;;3.95;3.55;;;;;;;;;;5096076;28;20451;-64
2022/03/06 05:16:16;;;;;;;5.50;3.53;;;;;;;;;;5114412;28;20027;-64
2022/03/06 05:18:42;;;;;;;4.47;4.07;;;;;;;;;;5113971;28;20420;-64
2022/03/06 05:21:08;;;;;;;4.25;3.40;;;;;;;;;;5092349;28;20056;-64
2022/03/06 05:23:34;;;;;;;3.72;3.42;;;;;;;;;;5093937;28;20050;-65
2022/03/06 05:26:00;;;;;;;4.78;3.83;;;;;;;;;;5092883;28;20068;-65
2022/03/06 05:28:27;;;;;;;4.30;3.08;;;;;;;;;;5093528;28;20616;-65
2022/03/06 05:30:53;;;;;;;6.28;3.33;;;;;;;;;;5093597;28;20028;-66
2022/03/06 05:33:19;;;;;;;3.45;3.00;;;;;;;;;;5093606;28;20498;-67
2022/03/06 05:35:46;;;;;;;4.03;3.45;;;;;;;;;;5093339;28;20391;-66
2022/03/06 05:38:12;;;;;;;6.82;3.20;;;;;;;;;;5093579;28;20028;-66
2022/03/06 05:40:38;;;;;;;4.03;2.85;;;;;;;;;;5093606;28;20032;-66
2022/03/06 05:43:04;;;;;;;3.67;3.15;;;;;;;;;;5093594;28;20100;-66
2022/03/06 05:45:30;;;;;;;6.65;3.40;;;;;;;;;;5075377;28;20099;-66
2022/03/06 05:47:56;;;;;;;6.90;3.40;;;;;;;;;;5092291;28;20058;-66
2022/03/06 05:50:22;;;;;;;5.00;3.03;;;;;;;;;;5093014;28;20111;-65
2022/03/06 05:52:50;;;;;;;3.25;2.95;;;;;;;;;;5093206;28;20039;-65
2022/03/06 05:55:17;;;;;;;3.83;3.25;;;;;;;;;;5093057;28;20040;-66
2022/03/06 05:57:44;;;;;;;6.05;3.03;;;;;;;;;;5093266;28;20031;-66
2022/03/06 06:00:11;;;;;;;4.07;2.70;;;;;;;;;;5093259;28;20107;-65
2022/03/06 06:02:37;;;;;;;3.60;3.08;;;;;;;;;;5092455;28;20372;-65
2022/03/06 06:05:07;;;;;;;6.70;2.97;;;;;;;;;;5092682;28;20031;-67
2022/03/06 06:07:33;;;;;;;3.22;2.92;;;;;;;;;;5093244;28;20081;-65
2022/03/06 06:10:00;;;;;;;6.10;3.03;;;;;;;;;;5092654;28;20024;-65
2022/03/06 06:12:26;;;;;;;6.78;3.10;;;;;;;;;;5092732;28;20020;-66
2022/03/06 06:14:52;;;;;;;4.78;2.92;;;;;;;;;;5091279;28;20475;-65
2022/03/06 06:17:18;;;;;;;4.90;2.72;;;;;;;;;;5092487;28;20578;-65
2022/03/06 06:19:44;;;;;;;3.60;3.10;;;;;;;;;;5092472;28;20048;-65
2022/03/06 06:22:10;;;;;;;2.50;2.30;;;;;;;;;;5105808;28;20043;-66
2022/03/06 06:24:36;;;;;;;3.58;2.88;;;;;;;;;;5112981;28;20027;-66
2022/03/06 06:27:02;;;;;;;2.92;2.50;;;;;;;;;;5112925;28;20024;-66
2022/03/06 06:29:28;;;;;;;3.65;2.83;;;;;;;;;;5113134;28;20027;-64
2022/03/06 06:31:54;;;;;;;4.72;2.58;;;;;;;;;;5112505;28;20047;-65
2022/03/06 06:34:20;;;;;;;3.20;2.90;;;;;;;;;;5106170;28;20120;-65
2022/03/06 06:36:47;;;;;;;4.25;2.85;;;;;;;;;;5093088;28;20111;-65
2022/03/06 06:39:13;;;;;;;3.47;2.90;;;;;;;;;;5091383;28;20426;-63
2022/03/06 06:41:42;;;;;;;3.10;2.72;;;;;;;;;;5089015;28;20450;-68
2022/03/06 06:44:09;;;;;;;5.28;2.67;;;;;;;;;;5091907;28;20032;-67
2022/03/06 06:46:35;;;;;;;3.28;2.80;;;;;;;;;;5091645;28;20482;-67
2022/03/06 06:49:03;;;;;;;8.18;2.60;;;;;;;;;;5091547;28;20123;-67
2022/03/06 06:51:29;;;;;;;3.03;2.40;;;;;;;;;;5088304;28;20422;-67
2022/03/06 06:53:55;;;;;;;3.00;2.70;;;;;;;;;;5099819;28;20356;-67
2022/03/06 06:56:22;;;;;;;3.72;3.10;;;;;;;;;;5092203;28;20027;-67
2022/03/06 06:58:48;;;;;;;8.82;3.10;;;;;;;;;;5073663;28;20046;-67
2022/03/06 07:01:16;;;;;;;3.42;2.33;;;;;;;;;;5091187;28;20016;-68
2022/03/06 07:03:42;;;;;;;4.80;2.67;;;;;;;;;;5091532;28;20063;-68
2022/03/06 07:06:08;;;;;;;5.35;2.55;;;;;;;;;;5091571;28;20040;-67
2022/03/06 07:08:34;;;;;;;4.95;2.42;;;;;;;;;;5073826;28;20071;-68
2022/03/06 07:11:00;;;;;;;5.55;2.60;;;;;;;;;;5097290;28;20027;-67
2022/03/06 07:13:26;;;;;;;7.13;2.95;;;;;;;;;;5091329;28;20489;-68
2022/03/06 07:15:52;;;;;;;4.15;2.45;;;;;;;;;;5091805;28;20031;-67
2022/03/06 07:18:18;;;;;;;2.95;2.40;;;;;;;;;;5091413;28;20517;-68
2022/03/06 07:20:44;;;;;;;3.63;2.50;;;;;;;;;;5091432;28;20032;-68
2022/03/06 07:23:10;;;;;;;5.20;2.55;;;;;;;;;;5091852;28;20027;-68
2022/03/06 07:25:36;;;;;;;3.17;2.20;;;;;;;;;;5099337;28;20024;-68
2022/03/06 07:28:02;;;;;;;3.28;2.55;;;;;;;;;;5095956;28;20020;-69
2022/03/06 07:30:28;;;;;;;6.88;2.60;;;;;;;;;;5095889;28;20047;-68
2022/03/06 07:32:54;;;;;;;4.22;2.20;;;;;;;;;;5094390;28;20031;-68
2022/03/06 07:35:21;;;;;;;4.65;2.30;;;;;;;;;;5095651;28;20197;-68
2022/03/06 07:37:47;;;;;;;3.88;2.17;;;;;;;;;;5095668;28;20028;-68
2022/03/06 07:40:15;;;;;;;4.38;2.22;;;;;;;;;;5095693;28;20027;-68
2022/03/06 07:42:41;;;;;;;13.95;3.60;;;;;;;;;;5096048;28;20036;-72
2022/03/06 07:45:07;;;;;;;7.45;3.70;;;;;;;;;;5096186;28;20172;-69
2022/03/06 07:47:33;;;;;;;10.35;3.60;;;;;;;;;;5094609;28;20028;-68
2022/03/06 07:49:59;;;;;;;7.72;3.22;;;;;;;;;;5077142;28;20008;-70
2022/03/06 07:52:25;;;;;;;11.05;3.47;;;;;;;;;;5095216;28;20136;-69
2022/03/06 07:54:51;;;;;;;20.48;3.80;;;;;;;;;;5095666;28;20458;-69
2022/03/06 07:57:17;;;;;;;22.77;3.45;;;;;;;;;;5077766;28;20085;-67
2022/03/06 07:59:43;;;;;;;50.80;4.45;;;;;;;;;;5077452;28;20410;-69
2022/03/06 08:02:09;;;;;;;44.33;3.78;;;;;;;;;;5095188;28;20108;-68
2022/03/06 08:04:35;;;;;;;21.75;3.55;;;;;;;;;;5095654;28;20629;-67
2022/03/06 08:07:01;;;;;;;35.20;3.70;;;;;;;;;;5095633;28;20032;-68
2022/03/06 08:09:27;;;;;;;38.90;4.10;;;;;;;;;;5094465;28;20031;-69
2022/03/06 08:11:53;;;;;;;17.92;3.30;;;;;;;;;;5095096;28;20044;-70
2022/03/06 08:14:19;;;;;;;18.60;3.10;;;;;;;;;;5095407;28;20039;-69
2022/03/06 08:16:46;;;;;;;14.70;3.85;;;;;;;;;;5095279;28;20523;-68
2022/03/06 08:19:12;;;;;;;11.77;3.33;;;;;;;;;;5095073;28;20442;-72
2022/03/06 08:21:39;;;;;;;19.55;3.33;;;;;;;;;;5091348;28;20427;-69
2022/03/06 08:24:05;;;;;;;6.85;2.83;;;;;;;;;;5095204;28;20021;-68
2022/03/06 08:26:31;;;;;;;9.48;3.45;;;;;;;;;;5093878;28;20032;-68
2022/03/06 08:28:57;;;;;;;11.43;2.90;;;;;;;;;;5094926;28;20035;-69
2022/03/06 08:31:23;;;;;;;9.93;3.30;;;;;;;;;;5095005;28;20016;-66
2022/03/06 08:33:49;;;;;;;12.55;3.15;;;;;;;;;;5095091;28;20089;-68
2022/03/06 08:36:15;;;;;;;7.57;3.00;;;;;;;;;;5093565;28;20028;-70
2022/03/06 08:38:42;;;;;;;11.13;3.22;;;;;;;;;;5077125;28;20031;-72
2022/03/06 08:41:08;;;;;;;13.35;3.28;;;;;;;;;;5094919;28;20418;-70
2022/03/06 08:43:34;;;;;;;4.90;2.58;;;;;;;;;;5094877;28;20053;-69
2022/03/06 08:46:00;;;;;;;15.05;2.58;;;;;;;;;;5094361;28;20081;-71
2022/03/06 08:48:26;;;;;;;12.30;2.60;;;;;;;;;;5086635;28;20124;-71
2022/03/06 08:50:52;;;;;;;12.00;2.90;;;;;;;;;;5095076;28;20530;-71
2022/03/06 08:53:18;;;;;;;6.40;2.83;;;;;;;;;;5094807;28;20028;-70
2022/03/06 08:55:45;;;;;;;5.97;2.70;;;;;;;;;;5094540;28;20071;-70
2022/03/06 08:58:11;;;;;;;9.60;2.80;;;;;;;;;;5094771;28;20029;-70
2022/03/06 09:00:37;;;;;;;12.38;2.72;;;;;;;;;;5094604;28;20441;-69
2022/03/06 09:03:03;;;;;;;4.53;2.80;;;;;;;;;;5093637;28;20367;-68
2022/03/06 09:05:29;;;;;;;7.55;2.70;;;;;;;;;;5094861;28;20020;-68
2022/03/06 09:08:00;;;;;;;2.88;2.40;;;;;;;;;;5094321;28;20081;-69
2022/03/06 09:10:26;;;;;;;5.53;2.88;;;;;;;;;;5094200;28;20028;-68
2022/03/06 09:12:52;;;;;;;8.93;2.70;;;;;;;;;;5094211;28;20082;-69
2022/03/06 09:15:18;;;;;;;7.60;2.60;;;;;;;;;;5094558;28;20252;-67
2022/03/06 09:17:44;;;;;;;6.63;2.53;;;;;;;;;;5075764;28;20410;-68
2022/03/06 09:20:10;;;;;;;7.70;3.03;;;;;;;;;;5093253;28;20471;-64
2022/03/06 09:22:36;;;;;;;6.65;2.70;;;;;;;;;;5093542;28;20051;-67
2022/03/06 09:25:02;;;;;;;3.92;2.50;;;;;;;;;;5093728;28;20040;-68
2022/03/06 09:27:28;;;;;;;2.67;2.30;;;;;;;;;;5093675;28;20032;-67
2022/03/06 09:29:54;;;;;;;5.57;2.10;;;;;;;;;;5093888;28;20083;-69
2022/03/06 09:32:20;;;;;;;6.03;2.50;;;;;;;;;;5093688;28;20107;-70
2022/03/06 09:34:46;;;;;;;4.60;2.25;;;;;;;;;;5093514;28;20039;-67
2022/03/06 09:37:12;;;;;;;5.95;2.38;;;;;;;;;;5092910;28;20036;-67
2022/03/06 09:39:38;;;;;;;3.25;2.20;;;;;;;;;;5093586;28;20043;-71
2022/03/06 09:42:04;;;;;;;4.75;2.15;;;;;;;;;;5091805;28;20087;-67
2022/03/06 09:44:31;;;;;;;6.85;2.13;;;;;;;;;;5093301;28;20027;-68
2022/03/06 09:46:58;;;;;;;6.72;2.08;;;;;;;;;;5093133;28;20043;-66
2022/03/06 09:49:25;;;;;;;11.52;2.15;;;;;;;;;;5093027;28;20075;-66
2022/03/06 09:51:51;;;;;;;16.98;2.85;;;;;;;;;;5092788;28;20047;-67
2022/03/06 09:54:17;;;;;;;4.82;2.15;;;;;;;;;;5092507;28;20039;-69
2022/03/06 09:56:44;;;;;;;5.90;2.10;;;;;;;;;;5075251;28;20035;-72
2022/03/06 09:59:10;;;;;;;18.35;2.70;;;;;;;;;;5093309;28;20078;-71
2022/03/06 10:01:36;;;;;;;37.35;3.17;;;;;;;;;;5093381;28;20047;-67
2022/03/06 10:04:23;;;;;;;41.88;3.45;;;;;;;;;;5092598;28;20035;-67
2022/03/06 10:07:08;;;;;;;19.08;3.42;;;;;;;;;;5092290;28;20024;-66
2022/03/06 10:09:54;;;;;;;13.48;2.10;;;;;;;;;;5086526;28;20411;-67
2022/03/06 10:12:23;;;;;;;32.95;2.83;;;;;;;;;;5090120;28;20032;-67
2022/03/06 10:14:51;;;;;;;19.98;2.40;;;;;;;;;;5089618;28;20039;-68
2022/03/06 10:17:18;;;;;;;15.02;2.15;;;;;;;;;;5092041;28;20028;-69
2022/03/06 10:19:47;;;;;;;18.20;2.33;;;;;;;;;;5091780;28;20115;-66
2022/03/06 10:22:13;;;;;;;21.90;2.53;;;;;;;;;;5085783;28;20059;-64
2022/03/06 10:24:52;;;;;;;14.95;2.38;;;;;;;;;;5071970;28;20025;-65
2022/03/06 10:27:38;;;;;;;16.63;2.00;;;;;;;;;;5071909;28;20109;-67
2022/03/06 10:30:22;;;;;;;11.30;2.08;;;;;;;;;;5069791;28;20020;-66
2022/03/06 10:32:48;;;;;;;11.52;2.50;;;;;;;;;;5072309;28;20041;-66
2022/03/06 10:35:13;;;;;;;19.45;2.30;;;;;;;;;;5071693;28;20047;-63
2022/03/06 10:37:40;;;;;;;11.80;1.98;;;;;;;;;;5071680;28;20036;-68
2022/03/06 10:40:07;;;;;;;56.25;2.97;;;;;;;;;;5072280;28;20031;-71
2022/03/06 10:42:33;;;;;;;12.50;2.05;;;;;;;;;;5071902;28;20058;-68
2022/03/06 10:44:59;;;;;;;13.38;2.20;;;;;;;;;;5072710;28;20037;-71
2022/03/06 10:47:25;;;;;;;9.38;1.83;;;;;;;;;;5071912;28;20036;-70
2022/03/06 10:50:01;;;;;;;18.90;2.03;;;;;;;;;;5070937;28;20031;-69
2022/03/06 10:52:27;;;;;;;19.45;2.60;;;;;;;;;;5071237;28;20514;-80
2022/03/06 10:54:55;;;;;;;25.65;3.75;;;;;;;;;;5072594;28;20131;-70
2022/03/06 10:57:22;;;;;;;20.73;2.45;;;;;;;;;;5071889;28;20025;-70
2022/03/06 10:59:51;;;;;;;8.70;2.30;;;;;;;;;;5071320;28;20076;-71
2022/03/06 11:02:17;;;;;;;19.90;2.70;;;;;;;;;;5071558;28;20020;-67
2022/03/06 11:04:47;;;;;;;16.90;3.03;;;;;;;;;;5071863;28;20024;-67
2022/03/06 11:07:13;;;;;;;14.32;3.00;;;;;;;;;;5083267;28;20028;-67
2022/03/06 11:09:39;;;;;;;11.13;2.90;;;;;;;;;;5073001;28;20056;-67
2022/03/06 11:12:06;;;;;;;20.27;2.90;;;;;;;;;;5071239;28;20056;-68
2022/03/06 11:14:32;;;;;;;8.02;2.80;;;;;;;;;;5070479;28;20357;-67
2022/03/06 11:16:58;;;;;;;10.10;2.70;;;;;;;;;;5071637;28;20667;-68
2022/03/06 11:19:25;;;;;;;15.65;2.20;;;;;;;;;;5070012;28;20017;-67
2022/03/06 11:21:55;;;;;;;10.00;2.22;;;;;;;;;;5081663;28;20127;-67
2022/03/06 11:24:26;;;;;;;5.85;2.10;;;;;;;;;;5091015;28;20036;-67
2022/03/06 11:27:10;;;;;;;11.40;2.55;;;;;;;;;;5090394;28;20456;-68
2022/03/06 11:29:50;;;;;;;5.82;2.20;;;;;;;;;;5091535;28;20028;-67
2022/03/06 11:32:23;;;;;;;10.32;1.70;;;;;;;;;;5091440;28;20460;-67
2022/03/06 11:34:51;;;;;;;11.20;2.17;;;;;;;;;;5091590;28;20525;-68
2022/03/06 11:37:17;;;;;;;5.30;1.77;;;;;;;;;;5091500;28;20465;-67
2022/03/06 11:39:43;;;;;;;6.05;1.95;;;;;;;;;;5091362;28;20026;-67
2022/03/06 11:42:10;;;;;;;3.10;1.48;;;;;;;;;;5074507;28;20020;-67
2022/03/06 11:44:40;;;;;;;4.45;1.80;;;;;;;;;;5090049;28;20106;-67
2022/03/06 11:47:18;;;;;;;4.10;1.65;;;;;;;;;;5091513;28;20021;-67
2022/03/06 11:50:01;;;;;;;7.65;1.83;;;;;;;;;;5091211;28;20059;-67
2022/03/06 11:52:28;;;;;;;6.13;1.73;;;;;;;;;;5091787;28;20062;-67
2022/03/06 11:54:55;;;;;;;5.15;1.90;;;;;;;;;;5091456;28;20028;-67
2022/03/06 11:57:41;;;;;;;6.20;1.60;;;;;;;;;;5090768;28;20054;-68
2022/03/06 12:00:15;;;;;;;6.72;1.40;;;;;;;;;;5077136;28;20035;-66
2022/03/06 12:02:48;;;;;;;3.47;1.50;;;;;;;;;;5091311;28;20047;-66
2022/03/06 12:05:16;;;;;;;3.67;1.50;;;;;;;;;;5091392;28;20094;-65
2022/03/06 12:07:42;;;;;;;3.60;1.38;;;;;;;;;;5091296;28;20077;-66
2022/03/06 12:10:11;;;;;;;6.85;1.60;;;;;;;;;;5091567;28;20101;-66
2022/03/06 12:12:38;;;;;;;4.22;1.70;;;;;;;;;;5094757;28;20375;-67
2022/03/06 12:15:13;;;;;;;4.72;1.67;;;;;;;;;;5094759;28;20119;-67
2022/03/06 12:17:39;;;;;;;2.88;1.40;;;;;;;;;;5094892;28;20111;-67
2022/03/06 12:20:18;;;;;;;2.90;1.40;;;;;;;;;;5094641;28;20482;-68
2022/03/06 12:22:48;;;;;;;6.40;1.30;;;;;;;;;;5094626;28;20048;-68
2022/03/06 12:25:14;;;;;;;4.35;1.50;;;;;;;;;;5093579;28;20493;-66
2022/03/06 12:28:03;;;;;;;2.85;1.30;;;;;;;;;;5076420;28;20551;-66
2022/03/06 12:30:30;;;;;;;3.17;1.40;;;;;;;;;;5076130;28;20066;-68
2022/03/06 12:32:56;;;;;;;5.10;1.30;;;;;;;;;;5094525;28;20035;-67
2022/03/06 12:35:25;;;;;;;3.38;1.58;;;;;;;;;;5076120;28;20032;-68
2022/03/06 12:37:55;;;;;;;2.38;1.50;;;;;;;;;;5094532;28;20020;-67
2022/03/06 12:40:22;;;;;;;2.75;1.50;;;;;;;;;;5094029;28;20028;-66
2022/03/06 12:42:57;;;;;;;3.28;1.65;;;;;;;;;;5093737;28;20028;-67
2022/03/06 12:45:23;;;;;;;4.13;1.50;;;;;;;;;;5094328;28;20444;-67
2022/03/06 12:47:49;;;;;;;2.83;1.30;;;;;;;;;;5094144;28;20635;-67
2022/03/06 12:50:18;;;;;;;2.72;1.58;;;;;;;;;;5094169;28;20038;-67
2022/03/06 12:52:44;;;;;;;3.90;1.90;;;;;;;;;;5094009;28;20012;-67
2022/03/06 12:55:15;;;;;;;2.22;1.50;;;;;;;;;;5092736;28;20064;-66
2022/03/06 12:57:42;;;;;;;3.13;1.50;;;;;;;;;;5093344;28;20081;-67
2022/03/06 13:00:09;;;;;;;2.15;1.45;;;;;;;;;;5082042;28;20036;-67
2022/03/06 13:02:35;;;;;;;4.25;2.13;;;;;;;;;;5075506;28;20491;-67
2022/03/06 13:05:01;;;;;;;2.30;1.60;;;;;;;;;;5093850;28;20437;-68
2022/03/06 13:07:29;;;;;;;2.95;1.45;;;;;;;;;;5094082;28;20114;-67
2022/03/06 13:09:58;;;;;;;1.75;1.33;;;;;;;;;;5093390;28;20107;-67
2022/03/06 13:12:27;;;;;;;2.53;1.40;;;;;;;;;;5093678;28;20063;-67
2022/03/06 13:14:53;;;;;;;1.38;1.10;;;;;;;;;;5093632;28;20075;-67
2022/03/06 13:17:20;;;;;;;2.22;1.50;;;;;;;;;;5075208;28;20366;-69
2022/03/06 13:19:47;;;;;;;1.52;1.38;;;;;;;;;;5092550;28;20020;-67
2022/03/06 13:22:14;;;;;;;1.83;1.30;;;;;;;;;;5086064;28;20440;-67
2022/03/06 13:24:42;;;;;;;1.52;1.20;;;;;;;;;;5071862;28;20056;-67
2022/03/06 13:27:08;;;;;;;1.88;1.20;;;;;;;;;;5073319;28;20028;-67
2022/03/06 13:29:34;;;;;;;2.20;1.45;;;;;;;;;;5071912;28;20024;-67
2022/03/06 13:32:00;;;;;;;2.80;1.60;;;;;;;;;;5073024;28;20112;-67
2022/03/06 13:34:26;;;;;;;2.13;1.38;;;;;;;;;;5072971;28;20104;-68
2022/03/06 13:36:52;;;;;;;2.17;1.30;;;;;;;;;;5075951;28;20047;-67
2022/03/06 13:39:19;;;;;;;1.95;1.13;;;;;;;;;;5077955;28;20035;-71
2022/03/06 13:41:49;;;;;;;2.95;1.38;;;;;;;;;;5073388;28;20071;-68
2022/03/06 13:44:15;;;;;;;9.65;1.77;;;;;;;;;;5072245;28;20033;-67
2022/03/06 13:46:41;;;;;;;5.70;2.13;;;;;;;;;;5070405;28;20560;-68
2022/03/06 13:49:12;;;;;;;4.43;1.75;;;;;;;;;;5072852;28;20028;-67
2022/03/06 13:51:38;;;;;;;2.53;1.45;;;;;;;;;;5070992;28;20518;-69
2022/03/06 13:54:06;;;;;;;5.65;1.48;;;;;;;;;;5085382;28;20040;-70
2022/03/06 13:56:42;;;;;;;7.78;2.15;;;;;;;;;;5093264;28;20476;-72
2022/03/06 13:59:10;;;;;;;13.95;1.90;;;;;;;;;;5093099;28;20032;-70
2022/03/06 14:01:37;;;;;;;9.52;1.90;;;;;;;;;;5093559;28;20022;-71
2022/03/06 14:04:05;;;;;;;12.57;1.75;;;;;;;;;;5093224;28;20103;-71
2022/03/06 14:06:41;;;;;;;14.05;1.85;;;;;;;;;;5094344;28;20031;-74
2022/03/06 14:09:18;;;;;;;12.57;1.77;;;;;;;;;;5092863;28;20483;-74
2022/03/06 14:11:44;;;;;;;4.88;1.70;;;;;;;;;;5092369;28;20139;-73
2022/03/06 14:14:10;;;;;;;11.73;1.50;;;;;;;;;;5092274;28;20032;-73
2022/03/06 14:16:36;;;;;;;6.00;1.63;;;;;;;;;;5092395;28;20060;-74
2022/03/06 14:19:02;;;;;;;3.17;1.40;;;;;;;;;;5093273;28;20730;-72
2022/03/06 14:21:28;;;;;;;21.40;1.67;;;;;;;;;;5100573;28;20043;-74
2022/03/06 14:23:55;;;;;;;4.60;1.45;;;;;;;;;;5095421;28;20111;-70
2022/03/06 14:26:25;;;;;;;4.32;1.40;;;;;;;;;;5087624;28;20032;-69
2022/03/06 14:28:56;;;;;;;5.85;1.58;;;;;;;;;;5092101;28;20020;-71
2022/03/06 14:31:22;;;;;;;22.08;1.63;;;;;;;;;;5092210;28;20027;-68
2022/03/06 14:33:49;;;;;;;14.93;2.03;;;;;;;;;;5092312;28;20024;-67
2022/03/06 14:36:15;;;;;;;9.88;1.83;;;;;;;;;;5092284;28;20078;-66
2022/03/06 14:38:41;;;;;;;4.15;1.52;;;;;;;;;;5092122;28;20534;-66
2022/03/06 14:41:07;;;;;;;7.28;1.48;;;;;;;;;;5091486;28;20032;-64